Terminal Aerodrome Forecast
Issued by NWS

Home | Current Version | Previous Version | Text Only | Print | Product List | Glossary On
Versions: 1 2 3 4 5 6 7 8 9 10 11 12 13 14 15 16 17 18 19
000
FTUS45 KTFX 252300
TAFGTF
TAF
KGTF 252340Z 2600/2624 36008KT P6SM VCSH SCT030 OVC050
     FM260400 05005KT 5SM -SN BR SCT020 OVC040
     FM260900 09006KT 1SM -SN BR SCT008 OVC012
      TEMPO 2609/2613 1/2SM SN FZFG OVC008
     FM262000 VRB05KT 6SM -SN BR SCT015 OVC025=

USA.gov is the U.S. government's official web portal to all federal, state and local government web resources and services.